createdAt,value
2022-08-16T00:00:42.570Z,50.584217
2022-08-16T00:01:41.908Z,50.584049
2022-08-16T00:02:41.523Z,50.584011
2022-08-16T00:03:41.613Z,50.583958
2022-08-16T00:04:41.557Z,50.584015
2022-08-16T00:05:47.880Z,50.584103
2022-08-16T00:06:42.590Z,50.584042
2022-08-16T00:07:41.516Z,50.583935
2022-08-16T00:08:42.254Z,50.583923
2022-08-16T00:09:41.698Z,50.584015
2022-08-16T00:10:41.476Z,50.584126
2022-08-16T00:11:41.454Z,50.584141
2022-08-16T00:12:41.464Z,50.584045
2022-08-16T00:13:42.478Z,50.584080
2022-08-16T00:14:41.387Z,50.583973
2022-08-16T00:15:52.224Z,50.584122
2022-08-16T00:17:01.375Z,50.584137
2022-08-16T00:17:56.526Z,50.584038
2022-08-16T00:18:42.252Z,50.584110
2022-08-16T00:19:42.234Z,50.584003
2022-08-16T00:20:41.813Z,50.583984
2022-08-16T00:21:41.189Z,50.583984
2022-08-16T00:22:42.789Z,50.584011
2022-08-16T00:23:46.420Z,50.583988
2022-08-16T00:24:44.785Z,50.584030
2022-08-16T00:26:33.374Z,50.584080
2022-08-16T00:26:43.913Z,50.584091
2022-08-16T00:27:41.217Z,50.584064
2022-08-16T00:28:42.171Z,50.584087
2022-08-16T00:29:41.142Z,50.584087
2022-08-16T00:30:41.102Z,50.584156
2022-08-16T00:31:47.140Z,50.584160
2022-08-16T00:32:41.972Z,50.584141
2022-08-16T00:33:41.098Z,50.584099
2022-08-16T00:34:52.357Z,50.584087
2022-08-16T00:35:42.030Z,50.584110
2022-08-16T00:36:47.142Z,50.584106
2022-08-16T00:37:57.727Z,50.584118
2022-08-16T00:38:43.849Z,50.584080
2022-08-16T00:39:40.979Z,50.584099
2022-08-16T00:40:43.923Z,50.584072
2022-08-16T00:41:41.820Z,50.584057
2022-08-16T00:42:40.917Z,50.584049
2022-08-16T00:43:43.697Z,50.584095
2022-08-16T00:44:40.845Z,50.584045
2022-08-16T00:45:57.810Z,50.584038
2022-08-16T00:46:52.863Z,50.584129
2022-08-16T00:47:42.700Z,50.584080
2022-08-16T00:48:44.070Z,50.584072
2022-08-16T00:49:44.535Z,50.584175
2022-08-16T00:50:40.723Z,50.584202
2022-08-16T00:51:41.327Z,50.584225
2022-08-16T00:52:50.317Z,50.584209
2022-08-16T00:53:41.713Z,50.584213
2022-08-16T00:54:40.762Z,50.584087
2022-08-16T00:55:40.643Z,50.584068
2022-08-16T00:56:56.570Z,50.584061
2022-08-16T00:57:59.867Z,50.584175
2022-08-16T00:58:41.522Z,50.584171
2022-08-16T00:59:54.760Z,50.584171
2022-08-16T01:00:41.532Z,50.584236
2022-08-16T01:01:40.468Z,50.584152
2022-08-16T01:02:40.457Z,50.584194
2022-08-16T01:03:41.900Z,50.584137
2022-08-16T01:04:40.414Z,50.584091
2022-08-16T01:05:41.412Z,50.584148
2022-08-16T01:06:49.133Z,50.584126
2022-08-16T01:07:50.459Z,50.584133
2022-08-16T01:08:41.416Z,50.584103
2022-08-16T01:09:42.924Z,50.584042
2022-08-16T01:10:40.417Z,50.584099
2022-08-16T01:11:54.091Z,50.584099
2022-08-16T01:12:41.274Z,50.584068
2022-08-16T01:13:40.248Z,50.584141
2022-08-16T01:14:40.296Z,50.584141
2022-08-16T01:15:43.068Z,50.584099
2022-08-16T01:16:40.281Z,50.584068
2022-08-16T01:17:40.260Z,50.584095
2022-08-16T01:18:41.483Z,50.584103
2022-08-16T01:19:40.862Z,50.584084
2022-08-16T01:20:40.209Z,50.584099
2022-08-16T01:21:41.029Z,50.584103
2022-08-16T01:22:57.637Z,50.584129
2022-08-16T01:23:58.615Z,50.584129
2022-08-16T01:24:51.723Z,50.584114
2022-08-16T01:25:41.831Z,50.584126
2022-08-16T01:26:40.152Z,50.584152
2022-08-16T01:27:40.031Z,50.584122
2022-08-16T01:28:45.221Z,50.584122
2022-08-16T01:29:57.891Z,50.584122
2022-08-16T01:30:50.353Z,50.584129
2022-08-16T01:31:42.729Z,50.584148
2022-08-16T01:32:39.973Z,50.584133
2022-08-16T01:33:39.981Z,50.584137
2022-08-16T01:34:47.294Z,50.584129
2022-08-16T01:35:41.505Z,50.584118
2022-08-16T01:36:40.178Z,50.584122
2022-08-16T01:37:39.853Z,50.584126
2022-08-16T01:38:39.879Z,50.584122
2022-08-16T01:39:39.949Z,50.584126
2022-08-16T01:40:39.842Z,50.584122
2022-08-16T01:41:42.216Z,50.584129
2022-08-16T01:42:42.440Z,50.584137
2022-08-16T01:43:40.008Z,50.584126
2022-08-16T01:44:39.785Z,50.584095
2022-08-16T01:45:41.619Z,50.584084
2022-08-16T01:46:40.860Z,50.584129
2022-08-16T01:47:49.408Z,50.584087
2022-08-16T01:48:40.700Z,50.584091
2022-08-16T01:49:43.555Z,50.584118
2022-08-16T01:50:43.123Z,50.584072
2022-08-16T01:51:40.612Z,50.584080
2022-08-16T01:52:39.633Z,50.584087
2022-08-16T01:53:41.125Z,50.584068
2022-08-16T01:54:39.632Z,50.584042
2022-08-16T01:55:40.831Z,50.584011
2022-08-16T01:56:39.556Z,50.584019
2022-08-16T01:57:39.593Z,50.584091
2022-08-16T01:58:40.572Z,50.584091
2022-08-16T01:59:40.551Z,50.584106
2022-08-16T02:00:39.413Z,50.584126
2022-08-16T02:01:39.527Z,50.584141
2022-08-16T02:02:42.439Z,50.584141
2022-08-16T02:03:40.044Z,50.584179
2022-08-16T02:04:48.583Z,50.584122
2022-08-16T02:05:40.409Z,50.584080
2022-08-16T02:06:46.020Z,50.584103
2022-08-16T02:07:44.137Z,50.584072
2022-08-16T02:08:39.259Z,50.584103
2022-08-16T02:09:39.280Z,50.584072
2022-08-16T02:10:39.302Z,50.584057
2022-08-16T02:11:47.952Z,50.584064
2022-08-16T02:12:51.373Z,50.584110
2022-08-16T02:13:41.809Z,50.584038
2022-08-16T02:14:39.306Z,50.584049
2022-08-16T02:15:42.332Z,50.584076
2022-08-16T02:16:39.133Z,50.584084
2022-08-16T02:17:39.126Z,50.584057
2022-08-16T02:18:39.142Z,50.584038
2022-08-16T02:19:59.139Z,50.584084
2022-08-16T02:20:42.697Z,50.584068
2022-08-16T02:21:40.840Z,50.584038
2022-08-16T02:22:40.042Z,50.584045
2022-08-16T02:23:39.022Z,50.584061
2022-08-16T02:24:41.154Z,50.584099
2022-08-16T02:25:50.587Z,50.584072
2022-08-16T02:26:40.082Z,50.584045
2022-08-16T02:27:38.955Z,50.584038
2022-08-16T02:28:38.974Z,50.584011
2022-08-16T02:29:41.424Z,50.584000
2022-08-16T02:30:44.315Z,50.584007
2022-08-16T02:32:04.162Z,50.584038
2022-08-16T02:32:49.932Z,50.584099
2022-08-16T02:33:44.194Z,50.584110
2022-08-16T02:34:41.102Z,50.584133
2022-08-16T02:35:54.001Z,50.584129
2022-08-16T02:36:48.087Z,50.584122
2022-08-16T02:37:52.224Z,50.584133
2022-08-16T02:38:39.858Z,50.584179
2022-08-16T02:39:38.856Z,50.584175
2022-08-16T02:40:38.723Z,50.584118
2022-08-16T02:41:39.468Z,50.584145
2022-08-16T02:42:38.696Z,50.584164
2022-08-16T02:43:38.670Z,50.584148
2022-08-16T02:44:38.646Z,50.584106
2022-08-16T02:45:38.636Z,50.584198
2022-08-16T02:46:38.647Z,50.584236
2022-08-16T02:48:01.629Z,50.584160
2022-08-16T02:48:39.670Z,50.584156
2022-08-16T02:49:58.962Z,50.584160
2022-08-16T02:50:54.329Z,50.584190
2022-08-16T02:51:39.904Z,50.584141
2022-08-16T02:52:38.525Z,50.584183
2022-08-16T02:53:38.516Z,50.584232
2022-08-16T02:54:38.573Z,50.584198
2022-08-16T02:55:41.147Z,50.584213
2022-08-16T02:56:38.435Z,50.584148
2022-08-16T02:57:42.429Z,50.584156
2022-08-16T02:58:39.482Z,50.584133
2022-08-16T02:59:39.770Z,50.584137
2022-08-16T03:00:38.376Z,50.584152
2022-08-16T03:01:39.468Z,50.584095
2022-08-16T03:02:38.393Z,50.584053
2022-08-16T03:04:29.278Z,50.584091
2022-08-16T03:04:52.117Z,50.584072
2022-08-16T03:05:40.303Z,50.584106
2022-08-16T03:06:42.831Z,50.584137
2022-08-16T03:07:38.282Z,50.584118
2022-08-16T03:08:52.114Z,50.584110
2022-08-16T03:09:39.239Z,50.584099
2022-08-16T03:10:38.178Z,50.584114
2022-08-16T03:11:38.202Z,50.584126
2022-08-16T03:12:55.628Z,50.584145
2022-08-16T03:13:51.175Z,50.584118
2022-08-16T03:14:39.142Z,50.584129
2022-08-16T03:15:38.118Z,50.584118
2022-08-16T03:16:42.078Z,50.584103
2022-08-16T03:17:53.937Z,50.584160
2022-08-16T03:18:40.402Z,50.584209
2022-08-16T03:19:47.933Z,50.584141
2022-08-16T03:20:39.019Z,50.584145
2022-08-16T03:21:38.840Z,50.584126
2022-08-16T03:22:37.989Z,50.584122
2022-08-16T03:23:37.952Z,50.584080
2022-08-16T03:24:37.997Z,50.584118
2022-08-16T03:25:44.209Z,50.584068
2022-08-16T03:26:38.949Z,50.584114
2022-08-16T03:27:37.889Z,50.584099
2022-08-16T03:28:37.895Z,50.584114
2022-08-16T03:29:37.915Z,50.584057
2022-08-16T03:30:37.901Z,50.584068
2022-08-16T03:31:40.425Z,50.584099
2022-08-16T03:32:37.790Z,50.584084
2022-08-16T03:33:37.796Z,50.584057
2022-08-16T03:34:37.778Z,50.584064
2022-08-16T03:35:40.057Z,50.584057
2022-08-16T03:36:37.760Z,50.584103
2022-08-16T03:38:02.923Z,50.584061
2022-08-16T03:38:38.715Z,50.584091
2022-08-16T03:39:42.759Z,50.584049
2022-08-16T03:40:38.983Z,50.584026
2022-08-16T03:41:49.796Z,50.584019
2022-08-16T03:43:18.648Z,50.584064
2022-08-16T03:43:51.579Z,50.584072
2022-08-16T03:44:44.326Z,50.584057
2022-08-16T03:45:38.603Z,50.584084
2022-08-16T03:46:47.625Z,50.584110
2022-08-16T03:47:38.559Z,50.584145
2022-08-16T03:48:40.510Z,50.583996
2022-08-16T03:49:37.603Z,50.584038
2022-08-16T03:50:41.251Z,50.584061
2022-08-16T03:51:38.485Z,50.583996
2022-08-16T03:52:37.458Z,50.584061
2022-08-16T03:53:38.613Z,50.584007
2022-08-16T03:54:37.423Z,50.584015
2022-08-16T03:55:45.355Z,50.584003
2022-08-16T03:56:38.443Z,50.583969
2022-08-16T03:57:38.387Z,50.583981
2022-08-16T03:58:37.357Z,50.583950
2022-08-16T03:59:37.339Z,50.584049
2022-08-16T04:00:41.317Z,50.584087
2022-08-16T04:01:37.381Z,50.584011
2022-08-16T04:02:37.292Z,50.584045
2022-08-16T04:03:37.292Z,50.584084
2022-08-16T04:04:37.250Z,50.584084
2022-08-16T04:05:37.667Z,50.584095
2022-08-16T04:06:37.249Z,50.584118
2022-08-16T04:07:37.184Z,50.584122
2022-08-16T04:08:37.218Z,50.584133
2022-08-16T04:09:38.183Z,50.584106
2022-08-16T04:10:37.878Z,50.584145
2022-08-16T04:11:37.664Z,50.584106
2022-08-16T04:12:54.009Z,50.584122
2022-08-16T04:14:01.402Z,50.584110
2022-08-16T04:14:38.078Z,50.584080
2022-08-16T04:15:38.066Z,50.584072
2022-08-16T04:16:37.062Z,50.584091
2022-08-16T04:17:37.018Z,50.584091
2022-08-16T04:18:37.046Z,50.584106
2022-08-16T04:19:36.989Z,50.584099
2022-08-16T04:20:37.975Z,50.584095
2022-08-16T04:21:46.069Z,50.584110
2022-08-16T04:22:37.919Z,50.584053
2022-08-16T04:23:36.922Z,50.584118
2022-08-16T04:24:36.910Z,50.584126
2022-08-16T04:25:36.954Z,50.584095
2022-08-16T04:26:36.829Z,50.584087
2022-08-16T04:27:36.922Z,50.584064
2022-08-16T04:28:55.660Z,50.584076
2022-08-16T04:29:46.108Z,50.584076
2022-08-16T04:30:37.759Z,50.584053
2022-08-16T04:31:36.796Z,50.584064
2022-08-16T04:32:36.749Z,50.584053
2022-08-16T04:33:36.709Z,50.584038
2022-08-16T04:34:36.706Z,50.584034
2022-08-16T04:35:36.792Z,50.584064
2022-08-16T04:36:36.709Z,50.584038
2022-08-16T04:37:42.335Z,50.584072
2022-08-16T04:38:37.651Z,50.584053
2022-08-16T04:39:47.471Z,50.584091
2022-08-16T04:40:37.685Z,50.584072
2022-08-16T04:41:37.393Z,50.584064
2022-08-16T04:42:38.348Z,50.584076
2022-08-16T04:43:36.578Z,50.584064
2022-08-16T04:44:53.790Z,50.584068
2022-08-16T04:45:37.525Z,50.584072
2022-08-16T04:47:02.658Z,50.584045
2022-08-16T04:47:37.474Z,50.584053
2022-08-16T04:48:36.467Z,50.584045
2022-08-16T04:49:44.066Z,50.584099
2022-08-16T04:50:38.681Z,50.584099
2022-08-16T04:51:37.455Z,50.584103
2022-08-16T04:52:36.411Z,50.584099
2022-08-16T04:53:36.435Z,50.584110
2022-08-16T04:54:36.388Z,50.584110
2022-08-16T04:55:38.189Z,50.584118
2022-08-16T04:56:36.350Z,50.584118
2022-08-16T04:57:37.386Z,50.584103
2022-08-16T04:58:44.433Z,50.584076
2022-08-16T04:59:37.293Z,50.584087
2022-08-16T05:00:36.266Z,50.584084
2022-08-16T05:01:57.758Z,50.584076
2022-08-16T05:02:55.799Z,50.584080
2022-08-16T05:03:42.067Z,50.584099
2022-08-16T05:04:37.183Z,50.584103
2022-08-16T05:05:40.242Z,50.584061
2022-08-16T05:06:42.404Z,50.584045
2022-08-16T05:07:37.168Z,50.584023
2022-08-16T05:08:37.130Z,50.584045
2022-08-16T05:09:36.303Z,50.584049
2022-08-16T05:10:36.105Z,50.584076
2022-08-16T05:11:36.109Z,50.584087
2022-08-16T05:12:36.037Z,50.584072
2022-08-16T05:13:41.461Z,50.584133
2022-08-16T05:14:45.532Z,50.584106
2022-08-16T05:15:36.966Z,50.584068
2022-08-16T05:16:35.954Z,50.584003
2022-08-16T05:17:36.926Z,50.584030
2022-08-16T05:18:35.924Z,50.584011
2022-08-16T05:19:36.875Z,50.584023
2022-08-16T05:20:45.223Z,50.583950
2022-08-16T05:21:38.646Z,50.583920
2022-08-16T05:22:35.857Z,50.583820
2022-08-16T05:23:36.865Z,50.583897
2022-08-16T05:24:35.799Z,50.583885
2022-08-16T05:25:41.082Z,50.583889
2022-08-16T05:26:36.802Z,50.583958
2022-08-16T05:27:42.798Z,50.583870
2022-08-16T05:28:37.652Z,50.583954
2022-08-16T05:29:57.469Z,50.583988
2022-08-16T05:30:37.173Z,50.583973
2022-08-16T05:31:35.776Z,50.584061
2022-08-16T05:32:45.698Z,50.583981
2022-08-16T05:33:36.717Z,50.584011
2022-08-16T05:34:36.634Z,50.584114
2022-08-16T05:35:35.830Z,50.584171
2022-08-16T05:36:36.708Z,50.584045
2022-08-16T05:37:39.941Z,50.584064
2022-08-16T05:38:39.912Z,50.584171
2022-08-16T05:39:37.650Z,50.584099
2022-08-16T05:40:36.563Z,50.584072
2022-08-16T05:41:44.834Z,50.584076
2022-08-16T05:42:36.500Z,50.584148
2022-08-16T05:43:43.515Z,50.584187
2022-08-16T05:44:36.457Z,50.584171
2022-08-16T05:45:36.602Z,50.584148
2022-08-16T05:46:35.460Z,50.584164
2022-08-16T05:47:43.174Z,50.584080
2022-08-16T05:48:36.420Z,50.584110
2022-08-16T05:49:39.703Z,50.584160
2022-08-16T05:50:35.370Z,50.584213
2022-08-16T05:51:38.979Z,50.584156
2022-08-16T05:52:36.301Z,50.584129
2022-08-16T05:53:36.454Z,50.584152
2022-08-16T05:54:35.278Z,50.584187
2022-08-16T05:55:40.683Z,50.584171
2022-08-16T05:56:37.493Z,50.584167
2022-08-16T05:57:35.582Z,50.584148
2022-08-16T05:58:35.230Z,50.584171
2022-08-16T05:59:35.315Z,50.584202
2022-08-16T06:00:35.165Z,50.584194
2022-08-16T06:01:38.096Z,50.584179
2022-08-16T06:02:35.199Z,50.584137
2022-08-16T06:03:35.223Z,50.584110
2022-08-16T06:04:37.536Z,50.584110
2022-08-16T06:05:36.141Z,50.584045
2022-08-16T06:06:36.055Z,50.584068
2022-08-16T06:07:35.186Z,50.584110
2022-08-16T06:08:42.241Z,50.583958
2022-08-16T06:09:42.628Z,50.584003
2022-08-16T06:10:35.997Z,50.584019
2022-08-16T06:11:35.130Z,50.584057
2022-08-16T06:12:35.006Z,50.584103
2022-08-16T06:13:35.018Z,50.584076
2022-08-16T06:14:34.931Z,50.584049
2022-08-16T06:15:35.181Z,50.583965
2022-08-16T06:16:34.916Z,50.583996
2022-08-16T06:17:42.352Z,50.584007
2022-08-16T06:18:35.841Z,50.584007
2022-08-16T06:19:35.756Z,50.583988
2022-08-16T06:20:36.768Z,50.583996
2022-08-16T06:21:36.801Z,50.584030
2022-08-16T06:22:39.075Z,50.584034
2022-08-16T06:23:34.885Z,50.583988
2022-08-16T06:24:54.097Z,50.584026
2022-08-16T06:25:38.894Z,50.584103
2022-08-16T06:26:37.495Z,50.584084
2022-08-16T06:27:40.091Z,50.584064
2022-08-16T06:28:36.321Z,50.584049
2022-08-16T06:29:34.834Z,50.584042
2022-08-16T06:30:34.664Z,50.584103
2022-08-16T06:31:43.462Z,50.584114
2022-08-16T06:32:39.222Z,50.584084
2022-08-16T06:33:41.587Z,50.584095
2022-08-16T06:34:55.890Z,50.584084
2022-08-16T06:35:40.306Z,50.584064
2022-08-16T06:36:35.520Z,50.584042
2022-08-16T06:37:37.362Z,50.584057
2022-08-16T06:38:34.659Z,50.584064
2022-08-16T06:39:34.655Z,50.584072
2022-08-16T06:40:35.455Z,50.584095
2022-08-16T06:41:39.849Z,50.584076
2022-08-16T06:42:39.486Z,50.584095
2022-08-16T06:43:35.490Z,50.584095
2022-08-16T06:44:34.421Z,50.584084
2022-08-16T06:45:34.500Z,50.584095
2022-08-16T06:46:34.359Z,50.584103
2022-08-16T06:47:52.558Z,50.584068
2022-08-16T06:48:35.315Z,50.584114
2022-08-16T06:49:35.493Z,50.584114
2022-08-16T06:50:34.295Z,50.584110
2022-08-16T06:51:46.521Z,50.584110
2022-08-16T06:52:59.682Z,50.584110
2022-08-16T06:53:35.773Z,50.584095
2022-08-16T06:54:34.219Z,50.584091
2022-08-16T06:55:34.795Z,50.584080
2022-08-16T06:56:34.160Z,50.584072
2022-08-16T06:57:34.229Z,50.584068
2022-08-16T06:58:35.140Z,50.584053
2022-08-16T06:59:48.477Z,50.584091
2022-08-16T07:00:35.124Z,50.584118
2022-08-16T07:01:42.979Z,50.584076
2022-08-16T07:02:35.125Z,50.584110
2022-08-16T07:03:54.950Z,50.584064
2022-08-16T07:04:36.981Z,50.584064
2022-08-16T07:05:42.073Z,50.584045
2022-08-16T07:06:35.039Z,50.584064
2022-08-16T07:07:36.237Z,50.584122
2022-08-16T07:08:33.964Z,50.584118
2022-08-16T07:09:34.023Z,50.584190
2022-08-16T07:10:33.980Z,50.584137
2022-08-16T07:11:45.618Z,50.584091
2022-08-16T07:12:47.199Z,50.584057
2022-08-16T07:14:00.680Z,50.584084
2022-08-16T07:14:35.082Z,50.584072
2022-08-16T07:15:33.951Z,50.584061
2022-08-16T07:16:33.881Z,50.584099
2022-08-16T07:17:33.911Z,50.584076
2022-08-16T07:18:33.778Z,50.584095
2022-08-16T07:20:29.221Z,50.584076
2022-08-16T07:20:47.291Z,50.584110
2022-08-16T07:21:45.604Z,50.584145
2022-08-16T07:22:37.379Z,50.584095
2022-08-16T07:23:38.828Z,50.584049
2022-08-16T07:24:34.660Z,50.584072
2022-08-16T07:25:34.844Z,50.584148
2022-08-16T07:26:34.687Z,50.584187
2022-08-16T07:27:37.017Z,50.584167
2022-08-16T07:28:33.578Z,50.584084
2022-08-16T07:29:33.674Z,50.584141
2022-08-16T07:30:44.967Z,50.584057
2022-08-16T07:31:38.142Z,50.584114
2022-08-16T07:32:33.563Z,50.584187
2022-08-16T07:33:52.378Z,50.584179
2022-08-16T07:34:34.823Z,50.584198
2022-08-16T07:35:34.577Z,50.584129
2022-08-16T07:36:33.464Z,50.584049
2022-08-16T07:37:33.597Z,50.584003
2022-08-16T07:38:34.198Z,50.584057
2022-08-16T07:39:34.048Z,50.584049
2022-08-16T07:40:59.233Z,50.584064
2022-08-16T07:41:34.489Z,50.584103
2022-08-16T07:42:35.205Z,50.584133
2022-08-16T07:43:33.596Z,50.584076
2022-08-16T07:44:49.323Z,50.584072
2022-08-16T07:45:34.396Z,50.584038
2022-08-16T07:46:36.922Z,50.584019
2022-08-16T07:47:34.420Z,50.584064
2022-08-16T07:48:33.272Z,50.584076
2022-08-16T07:49:33.336Z,50.584133
2022-08-16T07:50:57.808Z,50.584103
2022-08-16T07:51:34.304Z,50.584080
2022-08-16T07:52:33.154Z,50.584061
2022-08-16T07:53:33.269Z,50.584076
2022-08-16T07:54:39.101Z,50.584103
2022-08-16T07:55:45.942Z,50.584110
2022-08-16T07:56:37.055Z,50.584145
2022-08-16T07:57:37.937Z,50.584114
2022-08-16T07:58:36.153Z,50.584106
2022-08-16T07:59:42.742Z,50.584099
2022-08-16T08:00:34.091Z,50.584110
2022-08-16T08:01:33.098Z,50.584087
2022-08-16T08:02:33.025Z,50.584038
2022-08-16T08:03:36.118Z,50.584053
2022-08-16T08:04:33.965Z,50.584084
2022-08-16T08:05:35.926Z,50.584087
2022-08-16T08:06:32.925Z,50.584179
2022-08-16T08:07:33.021Z,50.584122
2022-08-16T08:08:51.731Z,50.584114
2022-08-16T08:09:34.037Z,50.584087
2022-08-16T08:10:33.881Z,50.584103
2022-08-16T08:11:32.966Z,50.584061
2022-08-16T08:12:36.279Z,50.584061
2022-08-16T08:13:42.742Z,50.584053
2022-08-16T08:14:33.844Z,50.584011
2022-08-16T08:15:34.408Z,50.584076
2022-08-16T08:16:32.742Z,50.584091
2022-08-16T08:17:43.277Z,50.584091
2022-08-16T08:18:33.705Z,50.584091
2022-08-16T08:19:32.836Z,50.584106
2022-08-16T08:20:33.747Z,50.584076
2022-08-16T08:22:00.009Z,50.584106
2022-08-16T08:22:33.678Z,50.584164
2022-08-16T08:23:32.719Z,50.584091
2022-08-16T08:24:32.706Z,50.584076
2022-08-16T08:25:54.403Z,50.584084
2022-08-16T08:26:33.568Z,50.584087
2022-08-16T08:27:32.991Z,50.584084
2022-08-16T08:28:32.538Z,50.584061
2022-08-16T08:29:37.733Z,50.584053
2022-08-16T08:30:52.149Z,50.584064
2022-08-16T08:31:33.575Z,50.584023
2022-08-16T08:32:57.191Z,50.584019
2022-08-16T08:33:34.450Z,50.584019
2022-08-16T08:34:32.429Z,50.584003
2022-08-16T08:35:33.390Z,50.583992
2022-08-16T08:36:33.053Z,50.584045
2022-08-16T08:37:54.654Z,50.584045
2022-08-16T08:38:43.768Z,50.584015
2022-08-16T08:39:33.489Z,50.584003
2022-08-16T08:40:32.604Z,50.584049
2022-08-16T08:41:32.398Z,50.584030
2022-08-16T08:42:32.291Z,50.584038
2022-08-16T08:43:41.691Z,50.584064
2022-08-16T08:44:33.262Z,50.584045
2022-08-16T08:45:53.192Z,50.584019
2022-08-16T08:46:35.817Z,50.584072
2022-08-16T08:47:32.290Z,50.584122
2022-08-16T08:48:34.796Z,50.584061
2022-08-16T08:49:46.719Z,50.583958
2022-08-16T08:50:33.132Z,50.584003
2022-08-16T08:51:36.999Z,50.584103
2022-08-16T08:52:34.170Z,50.584095
2022-08-16T08:53:32.174Z,50.584045
2022-08-16T08:54:32.096Z,50.584064
2022-08-16T08:55:32.147Z,50.584045
2022-08-16T08:56:32.396Z,50.584061
2022-08-16T08:57:32.108Z,50.584099
2022-08-16T08:58:34.234Z,50.584084
2022-08-16T08:59:32.072Z,50.584034
2022-08-16T09:00:31.948Z,50.584064
2022-08-16T09:01:36.756Z,50.584099
2022-08-16T09:02:32.892Z,50.584103
2022-08-16T09:03:32.398Z,50.584095
2022-08-16T09:04:31.927Z,50.584068
2022-08-16T09:05:35.825Z,50.584095
2022-08-16T09:06:32.860Z,50.584080
2022-08-16T09:07:31.917Z,50.584045
2022-08-16T09:08:35.020Z,50.584076
2022-08-16T09:09:33.953Z,50.584064
2022-08-16T09:10:31.755Z,50.584049
2022-08-16T09:11:38.853Z,50.583988
2022-08-16T09:12:35.009Z,50.584095
2022-08-16T09:13:32.797Z,50.584099
2022-08-16T09:14:31.705Z,50.584145
2022-08-16T09:15:32.988Z,50.584091
2022-08-16T09:17:03.869Z,50.584133
2022-08-16T09:17:51.698Z,50.584122
2022-08-16T09:18:35.742Z,50.584206
2022-08-16T09:19:33.066Z,50.584167
2022-08-16T09:20:31.594Z,50.584106
2022-08-16T09:21:31.652Z,50.584145
2022-08-16T09:22:31.560Z,50.584129
2022-08-16T09:23:36.580Z,50.584106
2022-08-16T09:24:52.478Z,50.584106
2022-08-16T09:25:34.457Z,50.584106
2022-08-16T09:26:44.143Z,50.584126
2022-08-16T09:27:57.290Z,50.584087
2022-08-16T09:29:13.621Z,50.584072
2022-08-16T09:29:44.485Z,50.584091
2022-08-16T09:30:36.189Z,50.584095
2022-08-16T09:31:32.495Z,50.584106
2022-08-16T09:32:32.031Z,50.584091
2022-08-16T09:33:36.985Z,50.584080
2022-08-16T09:34:32.292Z,50.584091
2022-08-16T09:35:31.384Z,50.584118
2022-08-16T09:36:34.363Z,50.584099
2022-08-16T09:37:36.463Z,50.584087
2022-08-16T09:38:32.949Z,50.584068
2022-08-16T09:39:42.092Z,50.584076
2022-08-16T09:40:42.950Z,50.584133
2022-08-16T09:41:32.798Z,50.584106
2022-08-16T09:42:31.144Z,50.584118
2022-08-16T09:43:59.449Z,50.584072
2022-08-16T09:45:12.314Z,50.584087
2022-08-16T09:45:32.170Z,50.584087
2022-08-16T09:46:45.991Z,50.584118
2022-08-16T09:47:56.746Z,50.584133
2022-08-16T09:48:44.638Z,50.584106
2022-08-16T09:49:37.116Z,50.584099
2022-08-16T09:50:37.155Z,50.584106
2022-08-16T09:51:36.780Z,50.584106
2022-08-16T09:52:31.980Z,50.584095
2022-08-16T09:53:31.083Z,50.584068
2022-08-16T09:54:32.130Z,50.584103
2022-08-16T09:55:31.469Z,50.584068
2022-08-16T09:56:31.630Z,50.584038
2022-08-16T09:57:34.391Z,50.584019
2022-08-16T09:58:39.060Z,50.584007
2022-08-16T09:59:38.695Z,50.584061
2022-08-16T10:00:45.195Z,50.584034
2022-08-16T10:01:32.016Z,50.584084
2022-08-16T10:02:30.795Z,50.584126
2022-08-16T10:03:31.030Z,50.584080
2022-08-16T10:04:40.913Z,50.584103
2022-08-16T10:05:31.949Z,50.584114
2022-08-16T10:06:34.032Z,50.584099
2022-08-16T10:07:44.704Z,50.584084
2022-08-16T10:08:31.705Z,50.584099
2022-08-16T10:09:44.824Z,50.584068
2022-08-16T10:10:31.782Z,50.584091
2022-08-16T10:11:30.793Z,50.584076
2022-08-16T10:12:31.612Z,50.584064
2022-08-16T10:13:30.710Z,50.584042
2022-08-16T10:14:33.396Z,50.584034
2022-08-16T10:15:31.818Z,50.584087
2022-08-16T10:16:30.633Z,50.584110
2022-08-16T10:17:30.631Z,50.584099
2022-08-16T10:19:00.841Z,50.584122
2022-08-16T10:19:32.045Z,50.584133
2022-08-16T10:20:30.639Z,50.584103
2022-08-16T10:21:32.093Z,50.584068
2022-08-16T10:22:30.556Z,50.584084
2022-08-16T10:23:30.512Z,50.584087
2022-08-16T10:24:30.496Z,50.584091
2022-08-16T10:27:17.954Z,50.584103
2022-08-16T10:27:18.287Z,50.584087
2022-08-16T10:27:47.203Z,50.584087
2022-08-16T10:28:31.959Z,50.584076
2022-08-16T10:29:59.446Z,50.584103
2022-08-16T10:30:36.704Z,50.584114
2022-08-16T10:31:44.195Z,50.584106
2022-08-16T10:32:32.005Z,50.584087
2022-08-16T10:33:33.466Z,50.584045
2022-08-16T10:34:32.376Z,50.584053
2022-08-16T10:35:33.059Z,50.583973
2022-08-16T10:36:38.917Z,50.584000
2022-08-16T10:37:32.631Z,50.584011
2022-08-16T10:38:33.005Z,50.584038
2022-08-16T10:39:40.616Z,50.584084
2022-08-16T10:40:31.221Z,50.584095
2022-08-16T10:41:30.253Z,50.584084
2022-08-16T10:42:30.277Z,50.584076
2022-08-16T10:43:31.227Z,50.584019
2022-08-16T10:44:30.241Z,50.584042
2022-08-16T10:45:36.973Z,50.584042
2022-08-16T10:46:39.532Z,50.584053
2022-08-16T10:47:38.094Z,50.584053
2022-08-16T10:48:31.251Z,50.584003
2022-08-16T10:49:30.023Z,50.584019
2022-08-16T10:50:30.063Z,50.584042
2022-08-16T10:51:34.638Z,50.584091
2022-08-16T10:53:32.794Z,50.584122
2022-08-16T10:54:30.594Z,50.584126
2022-08-16T10:55:40.420Z,50.584091
2022-08-16T10:56:56.224Z,50.584118
2022-08-16T10:57:32.705Z,50.584099
2022-08-16T10:58:34.517Z,50.584122
2022-08-16T10:59:39.179Z,50.584160
2022-08-16T11:00:30.902Z,50.584148
2022-08-16T11:01:39.962Z,50.584126
2022-08-16T11:02:58.818Z,50.584152
2022-08-16T11:03:43.233Z,50.584171
2022-08-16T11:05:59.109Z,50.584126
2022-08-16T11:06:30.872Z,50.584118
2022-08-16T11:07:51.447Z,50.584137
2022-08-16T11:08:35.724Z,50.584145
2022-08-16T11:09:30.682Z,50.584164
2022-08-16T11:11:30.630Z,50.584156
2022-08-16T11:12:29.641Z,50.584148
2022-08-16T11:14:30.647Z,50.584171
2022-08-16T11:15:29.612Z,50.584091
2022-08-16T11:17:32.657Z,50.584160
2022-08-16T11:19:02.990Z,50.584129
2022-08-16T11:19:30.654Z,50.584076
2022-08-16T11:20:41.149Z,50.584049
2022-08-16T11:21:31.118Z,50.584011
2022-08-16T11:22:41.943Z,50.584038
2022-08-16T11:23:30.716Z,50.584053
2022-08-16T11:24:40.069Z,50.584118
2022-08-16T11:26:30.381Z,50.584103
2022-08-16T11:27:35.434Z,50.584103
2022-08-16T11:29:12.691Z,50.584084
2022-08-16T11:29:30.437Z,50.584118
2022-08-16T11:30:38.803Z,50.584145